Portada
METAR-TAF:

METAR-TAF

Aeroports :

Fort-de-France, Martinica

latitud: 14-36N, longitud: 061-00W, altitud: 5 m

Observació

L'informe es va fer fa 14 minuts, a les 06:00 UTC
Vent 2 kt amb direcció variable
Temperatura 23°C
Humitat 89%
Pressió 1014 hPa
Visibilitat 10 km o més
Escasses núvols a una alçada de 3000 ft

METAR: TFFF 080600Z AUTO VRB02KT 9999 FEW030 23/21 Q1014

Hora: 02:14 (06:14 UTC)

Pronòstic

L'informe es va fer fa 7 hores i 14 minuts, a les 23:00 UTC
Pronòstic vàlid del 08 a les 00 UTC al 08 a les 24 UTC
Vent 10 kt del Est
Visibilitat 10 km o més
Núvols disperses a una alçada de 2500 ft
Temporalment
l' 08 a les 02 UTC al 08 a les 12 UTC
Vent 2 kt amb direcció variable

TAF: TFFF 072300Z 0800/0824 09010KT 9999 SCT025 TEMPO 0802/0812 VRB02KT

Observacions i pronòstics meteorològics de més de 4000 aeroports (METAR i TAF).

Les estacions disponibles són els punts grocs i vermells al mapa.

Posi el ratolí al punt desitjat per veure el nom de l'estació.

Feu clic per veure les observacions i els pronòstics meteorològics.

Per canviar el mapa: feu clic els botons verds amb una creu de color negre per apropar; al botó verd amb un guió per allunyar la imatge; o en les fletxes verdes per a mapes adjacents.


METAR-TAF: